Time;durP1;ratioP1;P1;durP2;ratioP2;P2;SDS_P1;SDS_P2;PMS_P1;PMS_P2;Temp;Humidity;BMP_temperature;BMP_pressure;BME280_temperature;BME280_humidity;BME280_pressure;Samples;Min_cycle;Max_cycle;Signal;HPM_P1;HPM_P2
2023/06/05 00:00:17;;;;;;;14.10;3.63;;;;;;;-144.30;98.06;85414.31;5114107;28;20589;-64
2023/06/05 00:02:44;;;;;;;6.90;3.87;;;;;;;-144.30;97.81;85392.47;5114255;28;20954;-64
2023/06/05 00:05:11;;;;;;;5.10;2.97;;;;;;;-144.30;97.51;85372.56;5113897;28;20668;-64
2023/06/05 00:07:38;;;;;;;5.67;3.17;;;;;;;-144.30;97.77;85414.31;5113587;28;20209;-64
2023/06/05 00:10:09;;;;;;;4.37;3.07;;;;;;;-144.30;97.84;85352.69;5114149;28;20278;-64
2023/06/05 00:12:36;;;;;;;6.83;3.17;;;;;;;-144.30;98.37;85420.28;5113807;28;20199;-64
2023/06/05 00:15:04;;;;;;;5.43;3.10;;;;;;;-144.30;98.52;85444.16;5113703;28;20190;-64
2023/06/05 00:17:31;;;;;;;5.23;3.53;;;;;;;-144.30;98.56;85444.16;5113706;27;20205;-64
2023/06/05 00:19:59;;;;;;;3.50;2.80;;;;;;;-144.30;98.78;85348.72;5113781;28;20719;-64
2023/06/05 00:22:28;;;;;;;8.93;3.40;;;;;;;-144.30;99.17;85466.00;5130735;27;20190;-64
2023/06/05 00:24:55;;;;;;;10.63;3.80;;;;;;;-144.30;99.26;85468.00;5134056;27;20232;-64
2023/06/05 00:27:23;;;;;;;8.33;3.10;;;;;;;-144.30;98.97;85452.09;5134128;27;20263;-64
2023/06/05 00:29:50;;;;;;;6.30;3.53;;;;;;;-144.30;99.16;85464.03;5134067;27;20308;-64
2023/06/05 00:32:17;;;;;;;10.00;3.33;;;;;;;-144.30;99.20;85471.97;5133866;27;20284;-64
2023/06/05 00:34:44;;;;;;;5.40;2.90;;;;;;;-144.30;98.75;85491.84;5134268;27;20690;-64
2023/06/05 00:37:13;;;;;;;7.07;3.60;;;;;;;-144.30;99.13;85470.00;5133847;27;20642;-64
2023/06/05 00:39:40;;;;;;;7.87;3.73;;;;;;;-144.30;99.09;85464.03;5134028;27;20186;-63
2023/06/05 00:42:08;;;;;;;10.57;3.03;;;;;;;-144.30;98.28;85434.22;5133888;27;20217;-64
2023/06/05 00:44:37;;;;;;;12.50;3.43;;;;;;;-144.30;97.09;85475.94;5133816;27;20597;-64
2023/06/05 00:47:05;;;;;;;6.43;3.47;;;;;;;-144.30;97.22;85525.66;5133531;27;20228;-63
2023/06/05 00:49:32;;;;;;;10.27;3.33;;;;;;;-144.30;97.35;85525.66;5133864;27;20698;-63
2023/06/05 00:52:00;;;;;;;7.37;3.43;;;;;;;-144.30;97.63;85501.78;5133577;27;20194;-64
2023/06/05 00:54:27;;;;;;;7.27;3.50;;;;;;;-144.30;97.91;85499.81;5133737;27;20190;-64
2023/06/05 00:56:55;;;;;;;6.80;3.33;;;;;;;-144.30;97.83;85559.44;5133594;27;20202;-64
2023/06/05 00:59:22;;;;;;;7.10;3.30;;;;;;;-144.30;97.36;85513.72;5133519;27;20194;-64
2023/06/05 01:01:52;;;;;;;3.67;3.37;;;;;;;-144.30;97.43;85535.59;5133651;27;20656;-64
2023/06/05 01:04:20;;;;;;;5.43;3.27;;;;;;;-144.30;97.05;85549.50;5132906;27;20674;-64
2023/06/05 01:06:47;;;;;;;6.23;3.03;;;;;;;-144.30;97.30;85555.47;5133507;27;20205;-64
2023/06/05 01:09:14;;;;;;;11.90;3.10;;;;;;;-144.30;97.14;85499.81;5133111;27;20703;-64
2023/06/05 01:11:53;;;;;;;8.87;3.70;;;;;;;-144.30;96.86;85491.84;5133203;27;20293;-64
2023/06/05 01:14:27;;;;;;;7.03;3.37;;;;;;;-144.30;96.56;85523.66;5133624;27;20206;-64
2023/06/05 01:17:00;;;;;;;7.67;3.27;;;;;;;-144.30;96.78;85519.69;5133072;27;20202;-64
2023/06/05 01:19:31;;;;;;;9.20;3.50;;;;;;;-144.30;96.48;85515.72;5133242;27;20225;-64
2023/06/05 01:21:58;;;;;;;7.17;3.30;;;;;;;-144.30;96.59;85867.59;5133037;27;20690;-63
2023/06/05 01:24:28;;;;;;;6.37;3.10;;;;;;;-144.30;96.46;85527.63;5133054;27;20204;-64
2023/06/05 01:27:04;;;;;;;5.27;3.23;;;;;;;-144.30;96.29;85535.59;5133090;27;20201;-64
2023/06/05 01:29:38;;;;;;;6.97;3.23;;;;;;;-144.30;95.80;85557.47;5133086;27;20613;-64
2023/06/05 01:32:15;;;;;;;8.93;3.03;;;;;;;-144.30;95.72;85489.88;5132825;27;20201;-64
2023/06/05 01:34:44;;;;;;;5.27;3.17;;;;;;;-144.30;95.81;85483.91;5132704;27;20201;-64
2023/06/05 01:37:14;;;;;;;5.93;3.17;;;;;;;-144.30;95.35;85523.66;5132811;27;20270;-64
2023/06/05 01:39:44;;;;;;;7.90;3.67;;;;;;;-144.30;94.07;85462.03;5132759;27;20186;-64
2023/06/05 01:42:12;;;;;;;5.40;3.40;;;;;;;-144.30;93.63;85491.84;5132518;27;20198;-64
2023/06/05 01:44:40;;;;;;;4.87;2.83;;;;;;;-144.30;94.19;85521.69;5132700;27;20582;-64
2023/06/05 01:47:08;;;;;;;5.13;3.20;;;;;;;-144.30;94.24;85485.88;5132285;27;20744;-63
2023/06/05 01:49:36;;;;;;;5.70;3.43;;;;;;;-144.30;94.58;85531.63;5132422;27;20260;-64
2023/06/05 01:52:03;;;;;;;8.37;4.30;;;;;;;-144.30;94.93;85535.59;5132254;27;20239;-64
2023/06/05 01:54:32;;;;;;;4.50;3.40;;;;;;;-144.30;94.75;85523.66;5132333;27;20205;-64
2023/06/05 01:57:04;;;;;;;4.87;3.40;;;;;;;-144.30;94.38;85525.66;5132298;27;20598;-64
2023/06/05 01:59:31;;;;;;;10.80;3.50;;;;;;;-144.30;94.12;85527.63;5132376;27;20219;-64
2023/06/05 02:01:58;;;;;;;13.27;3.53;;;;;;;-144.30;93.06;85479.94;5132353;27;20249;-67
2023/06/05 02:04:27;;;;;;;9.10;3.60;;;;;;;-144.30;92.69;85519.69;5132820;27;20602;-66
2023/06/05 02:06:54;;;;;;;4.37;3.40;;;;;;;-144.30;92.78;85503.78;5132426;27;20194;-64
2023/06/05 02:09:21;;;;;;;9.67;3.87;;;;;;;-144.30;93.13;85483.91;5132146;27;20719;-64
2023/06/05 02:11:49;;;;;;;6.00;3.03;;;;;;;-144.30;92.52;85527.63;5132060;27;20259;-64
2023/06/05 02:14:19;;;;;;;7.87;3.03;;;;;;;-144.30;92.92;85515.72;5131566;27;20193;-64
2023/06/05 02:16:48;;;;;;;5.83;3.40;;;;;;;-144.30;93.67;85513.72;5131916;27;20206;-64
2023/06/05 02:19:15;;;;;;;9.07;4.93;;;;;;;-144.30;94.29;85519.69;5132094;27;20278;-66
2023/06/05 02:21:42;;;;;;;9.50;3.70;;;;;;;-144.30;95.23;85515.72;5132058;27;20281;-66
2023/06/05 02:24:09;;;;;;;11.03;4.20;;;;;;;-144.30;95.68;85517.69;5132558;27;20653;-66
2023/06/05 02:26:36;;;;;;;6.33;3.40;;;;;;;-144.30;95.86;85533.59;5131890;27;20742;-66
2023/06/05 02:29:03;;;;;;;8.47;4.13;;;;;;;-144.30;96.49;85527.63;5131737;27;20718;-66
2023/06/05 02:31:33;;;;;;;9.10;3.73;;;;;;;-144.30;96.49;85547.53;5131859;27;20190;-66
2023/06/05 02:34:00;;;;;;;6.90;3.77;;;;;;;-144.30;95.93;85493.84;5131721;27;20234;-66
2023/06/05 02:36:27;;;;;;;5.67;3.17;;;;;;;-144.30;95.27;85563.41;5131923;27;20221;-64
2023/06/05 02:38:54;;;;;;;6.43;3.40;;;;;;;-144.30;95.67;85551.50;5131914;27;20233;-64
2023/06/05 02:41:22;;;;;;;12.23;4.20;;;;;;;-144.30;95.42;85547.53;5131584;27;20315;-63
2023/06/05 02:43:49;;;;;;;12.60;3.57;;;;;;;-144.30;96.16;85555.47;5132058;27;20198;-66
2023/06/05 02:46:16;;;;;;;8.00;4.13;;;;;;;-144.30;96.39;85559.44;5131481;27;20320;-64
2023/06/05 02:48:44;;;;;;;6.07;3.23;;;;;;;-144.30;96.60;85535.59;5131316;27;20736;-64
2023/06/05 02:51:12;;;;;;;9.13;4.03;;;;;;;-144.30;96.86;85573.38;5131407;27;20233;-64
2023/06/05 02:53:39;;;;;;;8.23;4.13;;;;;;;-144.30;97.08;85547.53;5131299;27;20236;-64
2023/06/05 02:56:06;;;;;;;8.60;4.07;;;;;;;-144.30;97.37;85543.53;5131609;27;20196;-63
2023/06/05 02:58:33;;;;;;;7.77;4.60;;;;;;;-144.30;97.22;85563.41;5131312;27;20234;-64
2023/06/05 03:01:01;;;;;;;12.07;4.57;;;;;;;-144.30;97.07;85537.59;5131038;27;20230;-64
2023/06/05 03:03:30;;;;;;;10.73;3.77;;;;;;;-144.30;95.88;85499.81;5131859;27;20204;-65
2023/06/05 03:06:04;;;;;;;9.70;4.03;;;;;;;-144.30;94.79;85533.59;5131316;27;20201;-64
2023/06/05 03:08:32;;;;;;;10.23;3.63;;;;;;;-144.30;94.43;85332.81;5130861;27;20655;-64
2023/06/05 03:10:59;;;;;;;14.50;4.30;;;;;;;-144.30;93.56;85519.69;5130762;27;20261;-64
2023/06/05 03:13:26;;;;;;;14.73;3.53;;;;;;;-144.30;93.00;85523.66;5131396;27;20194;-64
2023/06/05 03:15:56;;;;;;;6.57;3.23;;;;;;;-144.30;92.01;85519.69;5131453;27;20194;-64
2023/06/05 03:18:25;;;;;;;13.90;3.57;;;;;;;-144.30;91.05;85539.56;5131102;27;20607;-64
2023/06/05 03:20:54;;;;;;;6.27;3.40;;;;;;;-144.30;90.93;85513.72;5130767;27;20196;-64
2023/06/05 03:23:24;;;;;;;4.20;2.93;;;;;;;-144.30;90.98;85517.69;5130861;28;20198;-64
2023/06/05 03:25:52;;;;;;;10.40;3.00;;;;;;;-144.30;89.90;85513.72;5131125;27;20198;-64
2023/06/05 03:28:19;;;;;;;11.50;3.33;;;;;;;-144.30;91.90;85521.69;5134899;27;20198;-65
2023/06/05 03:30:47;;;;;;;8.23;3.47;;;;;;;-144.30;90.79;85515.72;5133746;27;20221;-65
2023/06/05 03:33:14;;;;;;;3.77;3.17;;;;;;;-144.30;90.16;85517.69;5132099;27;20216;-65
2023/06/05 03:35:42;;;;;;;3.67;2.90;;;;;;;-144.30;90.20;85543.53;5114589;28;20201;-65
2023/06/05 03:38:10;;;;;;;8.20;3.50;;;;;;;-144.30;89.76;85485.88;5131427;27;20194;-65
2023/06/05 03:40:39;;;;;;;4.67;3.53;;;;;;;-144.30;89.32;85503.78;5132429;27;20706;-65
2023/06/05 03:43:06;;;;;;;5.47;3.07;;;;;;;-144.30;88.26;85477.94;5134361;27;20198;-65
2023/06/05 03:45:34;;;;;;;7.37;3.97;;;;;;;-144.30;87.49;85513.72;5132047;27;20197;-65
2023/06/05 03:48:01;;;;;;;15.47;4.20;;;;;;;-144.30;87.67;85503.78;5134181;27;20308;-66
2023/06/05 03:50:31;;;;;;;11.50;3.03;;;;;;;-144.30;87.56;85503.78;5134922;27;20524;-65
2023/06/05 03:53:03;;;;;;;6.60;3.63;;;;;;;-144.30;87.81;85515.72;5134931;27;20698;-65
2023/06/05 03:55:40;;;;;;;7.40;3.00;;;;;;;-144.30;87.43;85517.69;5134859;27;20209;-65
2023/06/05 03:58:13;;;;;;;7.07;3.47;;;;;;;-144.30;88.42;85466.00;5134587;27;20201;-63
2023/06/05 04:00:40;;;;;;;9.43;3.23;;;;;;;-144.30;88.41;85477.94;5134474;27;20194;-65
2023/06/05 04:03:08;;;;;;;4.70;3.20;;;;;;;-144.30;87.05;85448.13;5134928;27;20202;-65
2023/06/05 04:05:35;;;;;;;15.80;4.13;;;;;;;-144.30;86.21;85471.97;5134585;27;20199;-65
2023/06/05 04:08:03;;;;;;;10.07;4.40;;;;;;;-144.30;85.99;85473.97;5134481;27;20194;-66
2023/06/05 04:10:30;;;;;;;6.07;2.70;;;;;;;-144.30;84.67;85456.06;5135092;27;20224;-65
2023/06/05 04:12:57;;;;;;;8.33;3.40;;;;;;;-144.30;84.29;85388.47;5135367;27;20707;-65
2023/06/05 04:15:27;;;;;;;10.40;2.97;;;;;;;-144.30;81.08;85360.66;5135000;27;20220;-65
2023/06/05 04:17:54;;;;;;;11.70;3.70;;;;;;;-144.30;78.67;85265.22;5134833;27;20194;-65
2023/06/05 04:20:21;;;;;;;12.75;3.35;;;;;;;-144.30;76.17;85249.34;5134901;27;20277;-65
2023/06/05 04:22:48;;;;;;;8.07;2.55;;;;;;;-144.30;75.68;85169.81;5135038;27;20251;-65
2023/06/05 04:25:15;;;;;;;7.07;2.78;;;;;;;-144.30;76.40;85281.13;5134561;27;20584;-64
2023/06/05 04:27:44;;;;;;;4.97;2.85;;;;;;;-144.30;77.21;85277.16;5133951;27;20237;-64
2023/06/05 04:30:12;;;;;;;7.37;2.80;;;;;;;-144.30;78.28;85344.75;5133778;27;20665;-64
2023/06/05 04:32:41;;;;;;;11.23;3.10;;;;;;;-144.30;78.18;85346.72;5132603;27;20198;-64
2023/06/05 04:35:10;;;;;;;4.88;3.03;;;;;;;-144.30;78.83;85336.78;5133722;27;20588;-64
2023/06/05 04:37:38;;;;;;;4.80;2.80;;;;;;;-144.30;79.33;85320.91;5133181;27;20215;-64
2023/06/05 04:40:09;;;;;;;9.18;3.08;;;;;;;-144.30;79.42;85261.25;5133359;27;20284;-64
2023/06/05 04:42:37;;;;;;;5.35;3.05;;;;;;;-144.30;78.93;85336.78;5133397;27;20747;-65
2023/06/05 04:45:07;;;;;;;7.70;3.10;;;;;;;-144.30;78.74;85285.09;5132769;27;20236;-64
2023/06/05 04:47:34;;;;;;;6.25;2.75;;;;;;;-144.30;78.47;85320.91;5132724;27;20225;-64
2023/06/05 04:50:04;;;;;;;10.88;3.40;;;;;;;-144.30;78.23;85340.78;5133045;27;20296;-64
2023/06/05 04:52:32;;;;;;;11.25;5.97;;;;;;;-144.30;78.06;85320.91;5133236;27;20241;-64
2023/06/05 04:55:01;;;;;;;10.82;5.60;;;;;;;-144.30;78.75;85324.88;5132926;27;20247;-64
2023/06/05 04:57:28;;;;;;;9.40;5.97;;;;;;;-144.30;78.88;85340.78;5133295;27;20190;-64
2023/06/05 04:59:56;;;;;;;10.35;6.60;;;;;;;-144.30;78.69;85308.97;5132700;27;20351;-59
2023/06/05 05:02:23;;;;;;;35.63;29.17;;;;;;;-144.30;78.38;85328.84;5132935;27;20347;-58
2023/06/05 05:04:51;;;;;;;18.48;13.30;;;;;;;-144.30;78.27;85334.81;5133288;27;20190;-59
2023/06/05 05:07:22;;;;;;;11.10;7.65;;;;;;;-144.30;78.18;85308.97;5133086;27;20201;-60
2023/06/05 05:09:50;;;;;;;12.05;7.35;;;;;;;-144.30;78.28;85312.94;5133099;27;20218;-57
2023/06/05 05:12:17;;;;;;;14.88;7.82;;;;;;;-144.30;78.26;85316.91;5133097;27;20198;-57
2023/06/05 05:14:44;;;;;;;15.68;7.03;;;;;;;-144.30;78.11;85287.09;5132505;27;20222;-59
2023/06/05 05:17:11;;;;;;;14.00;7.25;;;;;;;-144.30;78.10;85312.94;5132787;27;20198;-57
2023/06/05 05:19:40;;;;;;;10.75;6.45;;;;;;;-144.30;77.95;85293.06;5132790;27;20198;-59
2023/06/05 05:22:07;;;;;;;7.95;5.10;;;;;;;-144.30;78.25;85297.03;5132736;27;20198;-57
2023/06/05 05:24:35;;;;;;;10.02;5.88;;;;;;;-144.30;78.25;85644.94;5133287;27;20707;-59
2023/06/05 05:27:02;;;;;;;12.85;5.88;;;;;;;-144.30;78.08;85295.06;5132797;27;20280;-57
2023/06/05 05:29:29;;;;;;;15.52;6.70;;;;;;;-144.30;76.96;85233.44;5132871;27;20581;-58
2023/06/05 05:31:56;;;;;;;10.30;5.97;;;;;;;-144.30;77.17;85209.56;5132563;27;20209;-58
2023/06/05 05:34:23;;;;;;;14.02;6.65;;;;;;;-144.30;76.49;85205.59;5131879;27;20190;-58
2023/06/05 05:36:50;;;;;;;10.77;5.95;;;;;;;-144.30;76.20;85203.59;5133066;27;20694;-59
2023/06/05 05:39:17;;;;;;;10.48;5.45;;;;;;;-144.30;76.00;85217.53;5131458;27;20194;-59
2023/06/05 05:41:45;;;;;;;10.40;5.28;;;;;;;-144.30;75.62;85171.81;5133116;27;20627;-59
2023/06/05 05:44:12;;;;;;;10.48;5.78;;;;;;;-144.30;75.46;85233.44;5132850;27;20197;-59
2023/06/05 05:46:39;;;;;;;13.68;6.30;;;;;;;-144.30;75.22;85205.59;5132460;27;20229;-59
2023/06/05 05:49:06;;;;;;;11.55;5.82;;;;;;;-144.30;75.37;85122.09;5131729;27;20212;-59
2023/06/05 05:51:33;;;;;;;9.25;6.07;;;;;;;-144.30;75.66;85147.94;5132647;27;20218;-59
2023/06/05 05:54:00;;;;;;;16.10;6.40;;;;;;;-144.30;75.74;85195.66;5132626;27;20194;-58
2023/06/05 05:56:27;;;;;;;8.85;5.82;;;;;;;-144.30;76.54;85223.47;5132185;27;20205;-59
2023/06/05 05:58:55;;;;;;;17.58;6.90;;;;;;;-144.30;76.88;85213.53;5132283;27;20197;-58
2023/06/05 06:01:22;;;;;;;11.63;7.20;;;;;;;-144.30;77.02;85185.72;5132037;27;20671;-58
2023/06/05 06:03:49;;;;;;;14.38;6.15;;;;;;;-144.30;76.46;85173.78;5132153;27;20198;-59
2023/06/05 06:06:16;;;;;;;16.33;8.02;;;;;;;-144.30;76.22;85157.88;5131947;27;20204;-59
2023/06/05 06:08:43;;;;;;;9.65;6.68;;;;;;;-144.30;75.98;85157.88;5132441;27;20194;-59
2023/06/05 06:11:10;;;;;;;10.82;7.22;;;;;;;-144.30;75.76;85114.16;5131775;27;20214;-58
2023/06/05 06:13:37;;;;;;;14.23;5.78;;;;;;;-144.30;75.09;85056.50;5132137;27;20562;-59
2023/06/05 06:16:05;;;;;;;15.90;6.57;;;;;;;-144.30;73.91;85008.81;5131635;27;20190;-59
2023/06/05 06:18:32;;;;;;;12.65;6.53;;;;;;;-144.30;73.44;85008.81;5129324;27;20247;-60
2023/06/05 06:20:59;;;;;;;10.02;6.22;;;;;;;-144.30;72.83;84935.25;5131875;27;20194;-59
2023/06/05 06:23:26;;;;;;;10.98;5.40;;;;;;;-144.30;69.91;84780.22;5132365;27;20201;-59
2023/06/05 06:25:53;;;;;;;7.68;6.13;;;;;;;-144.30;67.92;84710.66;5132612;27;20606;-60
2023/06/05 06:28:20;;;;;;;12.68;5.65;;;;;;;-144.30;65.48;84629.19;5131439;27;20186;-59
2023/06/05 06:30:47;;;;;;;19.10;6.63;;;;;;;-144.30;63.60;84527.81;5131221;27;20222;-59
2023/06/05 06:33:15;;;;;;;16.75;5.47;;;;;;;-144.30;61.39;84339.00;5131223;27;20190;-59
2023/06/05 06:35:43;;;;;;;15.75;6.97;;;;;;;-144.30;58.66;84150.22;5131396;27;20186;-58
2023/06/05 06:38:10;;;;;;;13.57;6.85;;;;;;;-144.30;56.86;84668.94;5131324;27;20560;-59
2023/06/05 06:40:37;;;;;;;17.60;6.88;;;;;;;-144.30;56.00;83961.44;5131906;27;20186;-58
2023/06/05 06:43:03;;;;;;;8.50;7.13;;;;;;;-144.30;55.71;84009.13;5131662;27;20194;-58
2023/06/05 06:45:31;;;;;;;10.95;7.78;;;;;;;-144.30;55.10;83830.28;5131767;27;20457;-59
2023/06/05 06:47:57;;;;;;;18.35;10.10;;;;;;;-144.30;54.22;83808.44;5131334;27;20240;-58
2023/06/05 06:50:26;;;;;;;30.98;11.38;;;;;;;-144.30;55.35;83903.81;5131649;27;20222;-58
2023/06/05 06:52:53;;;;;;;16.83;11.80;;;;;;;-144.30;56.39;83913.75;5131460;27;20281;-60
2023/06/05 06:55:19;;;;;;;15.77;12.20;;;;;;;-144.30;56.89;83949.50;5131532;27;20193;-59
2023/06/05 06:57:46;;;;;;;17.15;12.88;;;;;;;-144.30;58.59;84072.72;5131157;27;20193;-58
2023/06/05 07:00:14;;;;;;;17.90;12.75;;;;;;;-144.30;60.07;84170.09;5131473;27;20209;-59
2023/06/05 07:02:41;;;;;;;14.32;12.13;;;;;;;-144.30;60.70;84152.22;5131405;27;20524;-59
2023/06/05 07:05:09;;;;;;;14.05;11.90;;;;;;;-144.30;60.75;84184.00;5131219;27;20288;-58
2023/06/05 07:07:37;;;;;;;14.68;12.35;;;;;;;-144.30;61.25;84199.91;5131314;27;20200;-59
2023/06/05 07:10:04;;;;;;;17.33;11.85;;;;;;;-144.30;61.98;84239.66;5130626;27;20194;-58
2023/06/05 07:12:31;;;;;;;15.18;11.77;;;;;;;-144.30;62.58;84281.38;5131047;27;20205;-58
2023/06/05 07:14:58;;;;;;;19.90;13.93;;;;;;;-144.30;63.35;84344.97;5131441;27;20573;-59
2023/06/05 07:17:27;;;;;;;14.95;12.50;;;;;;;-144.30;63.29;84352.91;5131308;27;20591;-59
2023/06/05 07:19:54;;;;;;;15.60;12.30;;;;;;;-144.30;63.46;84368.81;5131156;27;20205;-59
2023/06/05 07:22:21;;;;;;;19.08;11.27;;;;;;;-144.30;63.61;84384.72;5131336;28;20190;-59
2023/06/05 07:24:49;;;;;;;16.98;11.10;;;;;;;-144.30;63.34;84331.06;5130850;28;20254;-59
2023/06/05 07:27:16;;;;;;;20.08;12.73;;;;;;;-144.30;62.61;84325.09;5130985;28;20251;-58
2023/06/05 07:29:43;;;;;;;14.00;11.25;;;;;;;-144.30;62.88;84386.72;5131251;27;20730;-59
2023/06/05 07:32:10;;;;;;;17.00;11.50;;;;;;;-144.30;63.17;84362.84;5130909;28;20228;-59
2023/06/05 07:34:37;;;;;;;11.55;10.20;;;;;;;-144.30;63.80;84394.66;5130871;28;20211;-58
2023/06/05 07:37:04;;;;;;;20.90;11.38;;;;;;;-144.30;64.59;84430.44;5130769;27;20198;-59
2023/06/05 07:39:31;;;;;;;18.25;11.32;;;;;;;-144.30;65.23;84432.41;5130770;27;20194;-58
2023/06/05 07:42:00;;;;;;;22.08;12.65;;;;;;;-144.30;64.89;84434.41;5130488;28;20549;-58
2023/06/05 07:44:27;;;;;;;16.45;11.13;;;;;;;-144.30;64.19;84414.53;5130848;28;20190;-59
2023/06/05 07:46:53;;;;;;;13.20;10.38;;;;;;;-144.30;63.31;84362.84;5128925;28;20232;-58
2023/06/05 07:49:23;;;;;;;16.45;10.77;;;;;;;-144.30;62.64;84311.19;5130760;27;20671;-58
2023/06/05 07:51:50;;;;;;;17.50;11.25;;;;;;;-144.30;62.56;84277.41;5130185;27;20225;-58
2023/06/05 07:54:18;;;;;;;14.02;11.55;;;;;;;-144.30;61.99;84289.31;5130643;27;20342;-58
2023/06/05 07:56:48;;;;;;;16.20;11.63;;;;;;;-144.30;62.50;84271.44;5130425;27;20201;-59
2023/06/05 07:59:22;;;;;;;17.35;11.38;;;;;;;-144.30;62.17;84158.16;5130593;27;20201;-59
2023/06/05 08:01:49;;;;;;;18.05;11.32;;;;;;;-144.30;61.62;84237.66;5130703;27;20655;-59
2023/06/05 08:04:17;;;;;;;17.48;11.73;;;;;;;-144.30;61.46;84237.66;5130416;27;20205;-60
2023/06/05 08:06:45;;;;;;;22.00;12.77;;;;;;;-144.30;62.15;84291.31;5130908;27;20285;-60
2023/06/05 08:09:12;;;;;;;16.13;11.98;;;;;;;-144.30;62.12;84251.56;5130903;27;20247;-58
2023/06/05 08:11:40;;;;;;;17.33;12.48;;;;;;;-144.30;61.94;84239.66;5130276;27;20206;-58
2023/06/05 08:14:07;;;;;;;21.98;12.38;;;;;;;-144.30;60.96;84166.13;5133385;27;20198;-58
2023/06/05 08:16:36;;;;;;;15.90;12.50;;;;;;;-144.30;60.88;84166.13;5134343;27;20280;-59
2023/06/05 08:19:03;;;;;;;18.50;12.45;;;;;;;-144.30;60.29;84108.50;5134218;27;20682;-59
2023/06/05 08:21:30;;;;;;;19.38;12.23;;;;;;;-144.30;58.70;83949.50;5134192;27;20198;-59
2023/06/05 08:23:57;;;;;;;19.38;11.77;;;;;;;-144.30;57.05;83864.06;5129472;27;20244;-57
2023/06/05 08:26:23;;;;;;;13.82;10.93;;;;;;;-144.30;55.44;83790.56;5131665;27;20240;-58
2023/06/05 08:28:50;;;;;;;21.42;11.80;;;;;;;-144.30;54.78;83687.22;5129851;27;20218;-58
2023/06/05 08:31:17;;;;;;;16.05;11.15;;;;;;;-144.30;53.79;83631.59;5132728;27;20240;-59
2023/06/05 08:33:46;;;;;;;14.88;11.05;;;;;;;-144.30;52.08;83462.72;5127345;27;20241;-58
2023/06/05 08:36:12;;;;;;;20.25;11.43;;;;;;;-144.30;50.65;83393.16;5133233;27;20228;-59
2023/06/05 08:38:39;;;;;;;19.48;12.25;;;;;;;-144.30;50.87;83452.78;5134152;27;20200;-58
2023/06/05 08:41:10;;;;;;;18.45;11.45;;;;;;;-144.30;51.71;83514.38;5133658;27;20202;-59
2023/06/05 08:43:37;;;;;;;14.10;11.77;;;;;;;-144.30;52.23;83536.22;5133819;27;20240;-58
2023/06/05 08:46:06;;;;;;;14.38;10.88;;;;;;;-144.30;52.61;83494.50;5133359;27;20670;-58
2023/06/05 08:48:35;;;;;;;13.75;12.30;;;;;;;-144.30;52.26;83482.56;5133662;27;20197;-59
2023/06/05 08:51:04;;;;;;;15.07;11.63;;;;;;;-144.30;52.54;83401.13;5133568;27;20275;-58
2023/06/05 08:53:34;;;;;;;19.25;11.55;;;;;;;-144.30;52.56;83599.81;5133677;27;20194;-59
2023/06/05 08:56:02;;;;;;;15.48;11.65;;;;;;;-144.30;53.48;83669.34;5133612;27;20229;-59
2023/06/05 08:58:30;;;;;;;11.50;10.38;;;;;;;-144.30;53.40;83695.19;5133636;27;20672;-59
2023/06/05 09:00:57;;;;;;;14.77;10.45;;;;;;;-144.30;54.04;83728.97;5133464;27;20575;-58
2023/06/05 09:03:24;;;;;;;13.55;9.50;;;;;;;-144.30;53.85;83707.09;5133564;27;20194;-58
2023/06/05 09:05:53;;;;;;;11.65;8.10;;;;;;;-144.30;52.54;83703.13;5133480;27;20198;-58
2023/06/05 09:08:31;;;;;;;14.52;8.80;;;;;;;-144.30;52.92;83667.34;5133547;27;20198;-59
2023/06/05 09:11:22;;;;;;;12.02;9.20;;;;;;;-144.30;52.92;83683.25;5133177;27;20587;-59
2023/06/05 09:13:50;;;;;;;16.02;9.57;;;;;;;-144.30;52.99;83663.38;5133760;27;20194;-58
2023/06/05 09:16:20;;;;;;;13.40;8.77;;;;;;;-144.30;52.78;83683.25;5133253;27;20200;-58
2023/06/05 09:18:54;;;;;;;9.55;8.50;;;;;;;-144.30;52.35;83659.41;5133402;27;20691;-58
2023/06/05 09:21:21;;;;;;;16.00;8.95;;;;;;;-144.30;51.93;83579.94;5133084;27;20194;-58
2023/06/05 09:23:49;;;;;;;12.77;8.55;;;;;;;-144.30;51.81;83572.00;5132449;27;20285;-58
2023/06/05 09:26:16;;;;;;;14.13;9.30;;;;;;;-144.30;51.95;83536.22;5132798;27;20198;-59
2023/06/05 09:28:57;;;;;;;12.77;8.70;;;;;;;-144.30;53.08;83671.34;5133121;27;20215;-59
2023/06/05 09:31:24;;;;;;;10.75;8.23;;;;;;;-144.30;53.16;83673.31;5132651;27;20262;-58
2023/06/05 09:33:58;;;;;;;9.57;7.78;;;;;;;-144.30;52.57;83587.88;5129168;27;20221;-58
2023/06/05 09:36:27;;;;;;;7.45;6.35;;;;;;;-144.30;53.95;83766.72;5132012;27;20221;-58
2023/06/05 09:38:55;;;;;;;6.88;5.93;;;;;;;-144.30;53.53;83736.91;5131337;27;20262;-58
2023/06/05 09:41:23;;;;;;;5.85;5.35;;;;;;;-144.30;53.92;83764.72;5132547;27;20426;-60
2023/06/05 09:43:50;;;;;;;5.97;5.43;;;;;;;-144.30;53.78;83889.91;5132889;27;20198;-58
2023/06/05 09:46:17;;;;;;;6.38;5.38;;;;;;;-144.30;52.71;83728.97;5132358;27;20265;-58
2023/06/05 09:48:53;;;;;;;6.57;5.97;;;;;;;-144.30;53.78;83798.50;5132770;27;20194;-58
2023/06/05 09:51:20;;;;;;;7.55;6.32;;;;;;;-144.30;54.17;83800.50;5132702;27;20223;-58
2023/06/05 09:53:49;;;;;;;6.47;5.88;;;;;;;-144.30;53.07;83752.78;5132309;27;20198;-58
2023/06/05 09:56:19;;;;;;;8.90;6.10;;;;;;;-144.30;53.94;83788.56;5132415;27;20296;-59
2023/06/05 09:58:48;;;;;;;8.02;5.18;;;;;;;-144.30;52.90;83778.63;5126699;27;20620;-58
2023/06/05 10:01:17;;;;;;;7.32;5.88;;;;;;;-144.30;52.33;83758.75;5129244;27;20825;-59
2023/06/05 10:03:51;;;;;;;6.88;5.75;;;;;;;-144.30;53.38;83734.91;5131820;27;20197;-58
2023/06/05 10:06:23;;;;;;;6.40;5.90;;;;;;;-144.30;53.06;83770.69;5131928;27;20201;-57
2023/06/05 10:08:52;;;;;;;6.07;5.57;;;;;;;-144.30;52.77;83758.75;5129098;27;20186;-56
2023/06/05 10:11:22;;;;;;;6.45;5.88;;;;;;;-144.30;53.03;83744.84;5131389;27;20213;-58
2023/06/05 10:13:49;;;;;;;5.97;5.50;;;;;;;-144.30;50.50;83715.03;5131519;27;20297;-58
2023/06/05 10:16:18;;;;;;;6.57;5.65;;;;;;;-144.30;51.47;83643.50;5131730;27;20190;-58
2023/06/05 10:18:47;;;;;;;7.63;5.57;;;;;;;-144.30;51.01;83677.28;5131752;27;20266;-58
2023/06/05 10:21:16;;;;;;;6.15;5.25;;;;;;;-144.30;50.97;83778.63;5130973;27;20190;-57
2023/06/05 10:23:44;;;;;;;6.40;4.65;;;;;;;-144.30;51.64;83802.47;5131375;27;20194;-57
2023/06/05 10:26:23;;;;;;;6.28;5.55;;;;;;;-144.30;52.53;83828.31;5128591;27;20193;-58
2023/06/05 10:29:04;;;;;;;9.73;6.13;;;;;;;-144.30;52.95;83826.31;5128662;27;20272;-58
2023/06/05 10:31:43;;;;;;;5.57;5.20;;;;;;;-144.30;52.96;83828.31;5130340;27;20682;-59
2023/06/05 10:34:24;;;;;;;6.43;5.82;;;;;;;-144.30;53.45;83864.06;5130084;27;20202;-58
2023/06/05 10:37:26;;;;;;;6.22;5.60;;;;;;;-144.30;53.96;83876.00;5128044;27;20197;-58
2023/06/05 10:39:56;;;;;;;5.57;5.05;;;;;;;-144.30;53.88;83891.88;5126144;27;20239;-59
2023/06/05 10:42:26;;;;;;;5.88;5.43;;;;;;;-144.30;53.77;83907.78;5130969;27;20186;-58
2023/06/05 10:44:56;;;;;;;6.00;5.50;;;;;;;-144.30;54.20;83915.75;5130168;27;20187;-58
2023/06/05 10:47:53;;;;;;;5.35;4.75;;;;;;;-144.30;53.33;83893.88;5130370;27;20221;-58
2023/06/05 10:50:24;;;;;;;5.88;5.45;;;;;;;-144.30;53.53;83913.75;5129976;27;20582;-59
2023/06/05 10:52:52;;;;;;;9.43;4.90;;;;;;;-144.30;53.48;83889.91;5128458;27;20206;-59
2023/06/05 10:55:21;;;;;;;5.28;4.82;;;;;;;-144.30;52.82;83883.94;5130983;27;20191;-59
2023/06/05 10:58:08;;;;;;;4.38;4.03;;;;;;;-144.30;51.60;83927.66;5130859;27;20200;-59
2023/06/05 11:00:38;;;;;;;4.60;3.95;;;;;;;-144.30;52.03;83961.44;5130326;27;20228;-58
2023/06/05 11:03:07;;;;;;;4.55;4.25;;;;;;;-144.30;53.01;83909.78;5130106;27;20182;-59
2023/06/05 11:05:34;;;;;;;4.82;4.40;;;;;;;-144.30;53.29;83943.56;5130139;27;20193;-58
2023/06/05 11:08:15;;;;;;;4.97;4.57;;;;;;;-144.30;52.90;83883.94;5128286;27;20206;-58
2023/06/05 11:11:05;;;;;;;7.45;4.38;;;;;;;-144.30;53.45;83895.88;5128520;27;20198;-58
2023/06/05 11:13:55;;;;;;;5.25;4.72;;;;;;;-144.30;53.79;83870.03;5128215;27;20240;-58
2023/06/05 11:16:31;;;;;;;4.20;3.63;;;;;;;-144.30;53.53;83917.72;5129582;27;20289;-57
2023/06/05 11:19:38;;;;;;;6.07;4.18;;;;;;;-144.30;53.81;83927.66;5129085;27;20190;-57